RJFE(METAR)
10/16 18:00
METAR RJFE 160900Z VRB01KT 9999 FEW025 17/11 Q1021 RMK 1CU025 A3016=
戻る
トップページへ戻る
IMOC Co,.Ltd.